createdAt,value
2022-09-28T00:02:01.409Z,88.60
2022-09-28T00:07:04.264Z,89.28
2022-09-28T00:12:07.184Z,89.66
2022-09-28T00:17:10.684Z,90.58
2022-09-28T00:22:13.443Z,90.88
2022-09-28T00:27:16.374Z,91.55
2022-09-28T00:32:21.297Z,91.90
2022-09-28T00:37:24.152Z,92.05
2022-09-28T00:42:26.999Z,92.64
2022-09-28T00:47:52.336Z,93.35
2022-09-28T00:53:05.234Z,93.24
2022-09-28T00:58:10.405Z,93.81
2022-09-28T01:03:14.654Z,94.14
2022-09-28T01:08:17.560Z,94.27
2022-09-28T01:13:20.732Z,94.88
2022-09-28T01:18:50.370Z,94.66
2022-09-28T01:24:38.385Z,94.89
2022-09-28T01:30:05.694Z,95.19
2022-09-28T01:35:16.120Z,95.44
2022-09-28T01:40:21.754Z,95.10
2022-09-28T01:45:29.433Z,95.18
2022-09-28T01:50:38.112Z,95.48
2022-09-28T01:55:48.160Z,95.40
2022-09-28T02:00:56.676Z,95.20
2022-09-28T02:06:06.102Z,95.11
2022-09-28T02:11:17.031Z,95.18
2022-09-28T02:16:43.022Z,95.07
2022-09-28T02:22:10.963Z,95.29
2022-09-28T02:27:34.351Z,95.20
2022-09-28T02:32:40.672Z,95.12
2022-09-28T02:37:43.803Z,94.99
2022-09-28T02:43:00.112Z,95.17
2022-09-28T02:48:35.929Z,95.02
2022-09-28T02:54:00.634Z,94.84
2022-09-28T02:59:33.390Z,95.12
2022-09-28T03:04:51.343Z,95.04
2022-09-28T03:10:12.451Z,95.49
2022-09-28T03:15:26.533Z,95.37
2022-09-28T03:20:30.916Z,95.36
2022-09-28T03:25:33.739Z,95.58
2022-09-28T03:30:36.638Z,95.34
2022-09-28T03:35:39.816Z,95.04
2022-09-28T03:40:43.051Z,94.96
2022-09-28T03:45:53.409Z,95.07
2022-09-28T03:50:57.519Z,95.11
2022-09-28T03:56:14.582Z,95.27
2022-09-28T04:01:18.179Z,95.45
2022-09-28T04:06:21.604Z,95.41
2022-09-28T04:11:24.374Z,95.08
2022-09-28T04:16:27.495Z,95.58
2022-09-28T04:21:30.407Z,94.96
2022-09-28T04:26:33.171Z,95.32
2022-09-28T04:31:52.396Z,95.51
2022-09-28T04:36:55.402Z,95.59
2022-09-28T04:41:58.544Z,95.32
2022-09-28T04:47:04.926Z,95.41
2022-09-28T04:52:08.354Z,95.59
2022-09-28T04:57:11.272Z,95.55
2022-09-28T05:02:15.305Z,95.89
2022-09-28T05:07:18.151Z,95.94
2022-09-28T05:12:21.642Z,95.88
2022-09-28T05:17:24.373Z,95.64
2022-09-28T05:22:27.217Z,96.13
2022-09-28T05:27:30.006Z,96.26
2022-09-28T05:32:32.918Z,96.23
2022-09-28T05:37:36.610Z,96.18
2022-09-28T05:42:39.750Z,96.37
2022-09-28T05:47:43.821Z,96.31
2022-09-28T05:52:46.931Z,96.22
2022-09-28T05:57:49.672Z,96.09
2022-09-28T06:03:01.410Z,96.00
2022-09-28T06:08:08.545Z,95.70
2022-09-28T06:13:12.198Z,95.77
2022-09-28T06:18:15.054Z,95.21
2022-09-28T06:23:17.949Z,94.32
2022-09-28T06:28:21.671Z,93.78
2022-09-28T06:33:26.149Z,93.98
2022-09-28T06:38:29.293Z,94.08
2022-09-28T06:43:34.584Z,94.53
2022-09-28T06:48:38.170Z,94.43
2022-09-28T06:53:40.948Z,93.97
2022-09-28T06:58:43.752Z,93.86
2022-09-28T07:03:46.591Z,94.00
2022-09-28T07:09:00.707Z,93.92
2022-09-28T07:14:23.139Z,94.12
2022-09-28T07:19:28.572Z,93.50
2022-09-28T07:24:31.375Z,92.24
2022-09-28T07:29:34.138Z,90.78
2022-09-28T07:34:41.283Z,91.16
2022-09-28T07:40:03.095Z,91.13
2022-09-28T07:45:07.088Z,90.83
2022-09-28T07:50:09.882Z,91.00
2022-09-28T07:55:12.698Z,91.40
2022-09-28T08:00:15.934Z,90.39
2022-09-28T08:05:18.966Z,88.22
2022-09-28T08:10:21.746Z,89.81
2022-09-28T08:15:24.570Z,89.35
2022-09-28T08:20:49.441Z,88.02
2022-09-28T08:25:54.467Z,88.55
2022-09-28T08:30:59.971Z,87.64
2022-09-28T08:36:04.468Z,88.04
2022-09-28T08:41:33.810Z,88.00
2022-09-28T08:46:45.222Z,87.69
2022-09-28T08:52:06.984Z,86.49
2022-09-28T08:57:19.504Z,84.87
2022-09-28T09:02:34.356Z,85.36
2022-09-28T09:08:08.944Z,84.36
2022-09-28T09:13:31.983Z,84.23
2022-09-28T09:18:52.576Z,84.34
2022-09-28T09:23:57.260Z,83.57
2022-09-28T09:29:06.400Z,82.29
2022-09-28T09:34:43.971Z,80.96
2022-09-28T09:40:32.664Z,80.50
2022-09-28T09:46:01.250Z,79.82
2022-09-28T09:51:24.980Z,79.03
2022-09-28T09:56:39.450Z,79.86
2022-09-28T10:01:42.433Z,79.20
2022-09-28T10:06:45.678Z,76.92
2022-09-28T10:11:51.979Z,72.52
2022-09-28T10:16:56.310Z,72.83
2022-09-28T10:22:02.697Z,71.85
2022-09-28T10:27:08.758Z,70.89
2022-09-28T10:32:36.769Z,70.40
2022-09-28T10:38:15.624Z,67.79
2022-09-28T10:43:38.626Z,69.25
2022-09-28T10:48:55.453Z,69.88
2022-09-28T10:54:02.577Z,71.68
2022-09-28T10:59:29.553Z,70.04
2022-09-28T11:04:42.752Z,68.95
2022-09-28T11:09:48.846Z,67.43
2022-09-28T11:15:03.834Z,68.11
2022-09-28T11:20:27.950Z,68.99
2022-09-28T11:25:31.562Z,67.73
2022-09-28T11:30:42.796Z,66.76
2022-09-28T11:36:00.896Z,66.88
2022-09-28T11:41:46.420Z,65.23
2022-09-28T11:46:55.269Z,65.11
2022-09-28T11:52:03.605Z,64.33
2022-09-28T11:57:06.451Z,64.13
2022-09-28T12:02:38.748Z,64.62
2022-09-28T12:08:07.087Z,64.45
2022-09-28T12:13:13.426Z,63.11
2022-09-28T12:18:30.477Z,62.16
2022-09-28T12:23:35.861Z,60.73
2022-09-28T12:28:42.333Z,61.18
2022-09-28T12:33:48.053Z,61.36
2022-09-28T12:39:24.017Z,62.12
2022-09-28T12:44:55.911Z,61.89
2022-09-28T12:56:09.348Z,51.70
2022-09-28T13:01:21.085Z,45.14
2022-09-28T13:06:45.803Z,50.71
2022-09-28T13:12:34.278Z,54.24
2022-09-28T13:17:45.123Z,55.28
2022-09-28T13:23:45.574Z,56.28
2022-09-28T13:28:48.308Z,56.27
2022-09-28T13:33:51.086Z,57.66
2022-09-28T13:38:55.183Z,57.99
2022-09-28T13:44:13.285Z,57.50
2022-09-28T13:49:24.987Z,58.19
2022-09-28T13:55:05.650Z,58.90
2022-09-28T14:00:11.933Z,59.20
2022-09-28T14:05:25.073Z,59.41
2022-09-28T14:10:54.043Z,59.39
2022-09-28T14:16:22.271Z,57.27
2022-09-28T14:22:14.576Z,56.99
2022-09-28T14:27:17.346Z,56.83
2022-09-28T14:32:24.846Z,56.64
2022-09-28T14:37:50.548Z,57.77
2022-09-28T14:43:36.751Z,58.49
2022-09-28T14:49:04.070Z,56.46
2022-09-28T14:54:12.463Z,56.58
2022-09-28T14:59:22.835Z,57.42
2022-09-28T15:04:28.215Z,58.55
2022-09-28T15:09:32.377Z,59.86
2022-09-28T15:14:41.375Z,60.75
2022-09-28T15:19:51.183Z,62.29
2022-09-28T15:25:02.436Z,63.09
2022-09-28T15:30:31.944Z,63.84
2022-09-28T15:35:35.811Z,64.93
2022-09-28T15:40:38.605Z,65.56
2022-09-28T15:45:43.514Z,66.32
2022-09-28T15:51:11.031Z,67.35
2022-09-28T15:56:14.728Z,68.24
2022-09-28T16:01:35.982Z,68.57
2022-09-28T16:06:41.142Z,69.01
2022-09-28T16:11:43.847Z,69.87
2022-09-28T16:16:51.866Z,70.49
2022-09-28T16:22:02.635Z,70.78
2022-09-28T16:27:27.819Z,71.06
2022-09-28T16:32:41.817Z,71.55
2022-09-28T16:37:44.877Z,71.74
2022-09-28T16:42:49.323Z,71.71
2022-09-28T16:47:53.180Z,72.32
2022-09-28T16:53:33.360Z,72.56
2022-09-28T16:58:39.214Z,72.86
2022-09-28T17:03:46.801Z,73.06
2022-09-28T17:08:49.637Z,73.82
2022-09-28T17:13:57.231Z,74.33
2022-09-28T17:19:01.124Z,74.31
2022-09-28T17:24:05.097Z,74.74
2022-09-28T17:29:09.879Z,74.81
2022-09-28T17:34:19.608Z,75.13
2022-09-28T17:39:25.086Z,75.18
2022-09-28T17:44:28.490Z,75.65
2022-09-28T17:49:31.237Z,75.61
2022-09-28T17:54:34.343Z,75.81
2022-09-28T17:59:37.029Z,76.09
2022-09-28T18:04:51.910Z,76.18
2022-09-28T18:09:56.841Z,76.82
2022-09-28T18:14:59.546Z,77.42
2022-09-28T18:20:02.375Z,78.01
2022-09-28T18:25:07.563Z,78.55
2022-09-28T18:30:10.844Z,79.61
2022-09-28T18:35:13.584Z,79.73
2022-09-28T18:40:16.352Z,79.96
2022-09-28T18:45:19.671Z,80.15
2022-09-28T18:50:22.459Z,80.82
2022-09-28T18:55:25.254Z,81.19
2022-09-28T19:00:27.938Z,82.03
2022-09-28T19:05:30.731Z,82.16
2022-09-28T19:10:33.902Z,82.87
2022-09-28T19:15:37.053Z,83.76
2022-09-28T19:20:40.312Z,83.66
2022-09-28T19:25:43.042Z,83.93
2022-09-28T19:30:45.881Z,84.29
2022-09-28T19:36:20.665Z,84.51
2022-09-28T19:41:43.755Z,85.01
2022-09-28T19:46:47.385Z,85.23
2022-09-28T19:57:16.084Z,85.43
2022-09-28T20:02:19.208Z,85.84
2022-09-28T20:07:22.003Z,85.87
2022-09-28T20:12:24.739Z,86.01
2022-09-28T20:17:27.764Z,86.24
2022-09-28T20:22:31.125Z,86.55
2022-09-28T20:27:33.881Z,86.67
2022-09-28T20:32:37.729Z,86.55
2022-09-28T20:37:40.706Z,86.78
2022-09-28T20:42:45.861Z,86.74
2022-09-28T20:47:48.659Z,86.75
2022-09-28T20:52:51.389Z,87.24
2022-09-28T20:57:54.636Z,86.74
2022-09-28T21:02:57.610Z,86.67
2022-09-28T21:08:00.465Z,86.69
2022-09-28T21:13:03.279Z,86.66
2022-09-28T21:18:06.381Z,86.51
2022-09-28T21:23:09.136Z,86.75
2022-09-28T21:28:13.669Z,86.44
2022-09-28T21:33:16.351Z,86.57
2022-09-28T21:38:19.063Z,86.43
2022-09-28T21:43:21.764Z,86.18
2022-09-28T21:48:26.133Z,86.39
2022-09-28T21:53:31.685Z,86.60
2022-09-28T21:58:35.434Z,86.44
2022-09-28T22:03:38.192Z,86.80
2022-09-28T22:08:40.962Z,86.99
2022-09-28T22:13:58.272Z,87.24
2022-09-28T22:19:01.113Z,87.32
2022-09-28T22:24:07.050Z,87.24
2022-09-28T22:29:10.144Z,87.89
2022-09-28T22:34:12.840Z,88.31
2022-09-28T22:39:15.591Z,88.28
2022-09-28T22:44:19.764Z,88.71
2022-09-28T22:49:22.751Z,88.47
2022-09-28T22:54:25.718Z,88.84
2022-09-28T22:59:28.452Z,89.52
2022-09-28T23:04:32.349Z,89.62
2022-09-28T23:09:35.058Z,90.35
2022-09-28T23:14:37.801Z,90.09
2022-09-28T23:19:40.524Z,90.16
2022-09-28T23:24:43.255Z,90.01
2022-09-28T23:29:48.839Z,90.59
2022-09-28T23:34:51.536Z,90.80
2022-09-28T23:39:54.320Z,91.06
2022-09-28T23:44:58.198Z,90.86
2022-09-28T23:50:00.933Z,91.66
2022-09-28T23:55:04.032Z,91.77
